TimeEDT,TemperatureF,Dew PointF,Humidity,Sea Level PressureIn,VisibilityMPH,Wind Direction,Wind SpeedMPH,Gust SpeedMPH,PrecipitationIn,Events,Conditions,WindDirDegrees,DateUTC
12:55 AM,41.0,32.0,70,30.34,10.0,West,3.5,-,N/A,,Clear,280,2013-05-26 04:55:00
1:55 AM,42.1,32.0,67,30.33,10.0,Calm,Calm,-,N/A,,Clear,0,2013-05-26 05:55:00
2:55 AM,39.9,34.0,79,30.35,10.0,NW,3.5,-,N/A,,Clear,320,2013-05-26 06:55:00
3:55 AM,39.0,33.1,79,30.34,10.0,Calm,Calm,-,N/A,,Clear,0,2013-05-26 07:55:00
4:55 AM,37.9,30.9,76,30.35,10.0,ENE,3.5,-,N/A,,Clear,60,2013-05-26 08:55:00
5:55 AM,41.0,32.0,70,30.36,10.0,NE,3.5,-,N/A,,Clear,50,2013-05-26 09:55:00
6:55 AM,41.0,33.1,73,30.39,10.0,Calm,Calm,-,N/A,,Clear,0,2013-05-26 10:55:00
7:55 AM,46.9,35.1,63,30.38,10.0,ENE,4.6,-,N/A,,Clear,70,2013-05-26 11:55:00
8:55 AM,53.1,30.9,43,30.37,10.0,ENE,4.6,-,N/A,,Clear,70,2013-05-26 12:55:00
9:55 AM,55.9,28.9,36,30.39,10.0,Variable,3.5,-,N/A,,Clear,0,2013-05-26 13:55:00
10:55 AM,59.0,30.0,33,30.37,10.0,Variable,3.5,-,N/A,,Clear,0,2013-05-26 14:55:00
11:55 AM,60.1,30.9,33,30.36,10.0,Variable,3.5,-,N/A,,Clear,0,2013-05-26 15:55:00
12:55 PM,62.1,30.0,30,30.35,10.0,North,-9999.0,-,N/A,,Clear,0,2013-05-26 16:55:00
1:55 PM,64.0,28.9,27,30.32,10.0,SW,12.7,-,N/A,,Clear,230,2013-05-26 17:55:00
2:55 PM,64.0,32.0,30,30.31,10.0,West,10.4,-,N/A,,Clear,270,2013-05-26 18:55:00
3:55 PM,64.9,30.9,28,30.30,10.0,WNW,10.4,-,N/A,,Clear,300,2013-05-26 19:55:00
4:55 PM,64.0,30.0,28,30.28,10.0,West,10.4,-,N/A,,Clear,280,2013-05-26 20:55:00
5:55 PM,64.0,27.0,25,30.27,10.0,NW,9.2,-,N/A,,Clear,310,2013-05-26 21:55:00
6:55 PM,63.0,25.0,24,30.26,10.0,WNW,8.1,-,N/A,,Clear,300,2013-05-26 22:55:00
7:55 PM,61.0,25.0,25,30.25,10.0,NW,9.2,-,N/A,,Clear,310,2013-05-26 23:55:00
8:55 PM,57.9,26.1,30,30.23,10.0,WNW,5.8,-,N/A,,Clear,300,2013-05-27 00:55:00
9:55 PM,51.1,30.0,44,30.23,10.0,WSW,4.6,-,N/A,,Clear,240,2013-05-27 01:55:00
10:55 PM,46.9,33.1,59,30.25,10.0,WSW,3.5,-,N/A,,Clear,240,2013-05-27 02:55:00
11:55 PM,45.0,33.1,63,30.26,10.0,West,4.6,-,N/A,,Clear,260,2013-05-27 03:55:00